Time;durP1;ratioP1;P1;durP2;ratioP2;P2;SDS_P1;SDS_P2;PMS_P1;PMS_P2;Temp;Humidity;BMP_temperature;BMP_pressure;BME280_temperature;BME280_humidity;BME280_pressure;Samples;Min_cycle;Max_cycle;Signal;HPM_P1;HPM_P2
2023/12/02 00:01:09;;;;;;;;;;;;;;;20.14;47.82;96078.14;624517;227;62816;-67
2023/12/02 00:03:37;;;;;;;;;;;;;;;20.13;47.80;96067.74;624541;227;64830;-67
2023/12/02 00:06:05;;;;;;;;;;;;;;;20.13;47.78;96067.74;624548;227;66809;-67
2023/12/02 00:08:32;;;;;;;;;;;;;;;20.13;47.77;96071.23;624521;227;64772;-67
2023/12/02 00:11:00;;;;;;;;;;;;;;;20.13;47.79;96075.75;624512;227;67007;-67
2023/12/02 00:13:27;;;;;;;;;;;;;;;20.13;47.80;96073.08;624525;227;66904;-67
2023/12/02 00:15:55;;;;;;;;;;;;;;;20.14;47.84;96074.69;624594;227;64726;-63
2023/12/02 00:18:22;;;;;;;;;;;;;;;20.13;47.83;96071.23;624499;227;67214;-68
2023/12/02 00:20:50;;;;;;;;;;;;;;;20.13;47.84;96076.56;624564;227;66669;-67
2023/12/02 00:23:17;;;;;;;;;;;;;;;20.13;47.83;96065.89;624481;227;62760;-67
2023/12/02 00:25:45;;;;;;;;;;;;;;;20.13;47.84;96062.41;624534;227;67247;-67
2023/12/02 00:28:12;;;;;;;;;;;;;;;20.14;47.84;96075.47;624551;225;67248;-67
2023/12/02 00:30:40;;;;;;;;;;;;;;;20.13;47.83;96073.89;624528;227;64606;-67
2023/12/02 00:33:08;;;;;;;;;;;;;;;20.13;47.82;96060.56;624502;226;64979;-67
2023/12/02 00:35:36;;;;;;;;;;;;;;;20.13;47.79;96063.23;624758;227;66827;-67
2023/12/02 00:38:03;;;;;;;;;;;;;;;20.13;47.78;96057.89;624751;227;64679;-67
2023/12/02 00:40:31;;;;;;;;;;;;;;;20.13;47.77;96059.73;624788;227;67118;-67
2023/12/02 00:42:58;;;;;;;;;;;;;;;20.13;47.77;96068.56;624761;227;66995;-69
2023/12/02 00:45:26;;;;;;;;;;;;;;;20.12;47.80;96061.63;624779;227;64762;-63
2023/12/02 00:47:53;;;;;;;;;;;;;;;20.13;47.83;96052.55;624761;227;66610;-63
2023/12/02 00:50:21;;;;;;;;;;;;;;;20.13;47.80;96055.22;624715;227;66972;-63
2023/12/02 00:52:48;;;;;;;;;;;;;;;20.13;47.82;96052.55;624780;227;64573;-63
2023/12/02 00:55:16;;;;;;;;;;;;;;;20.13;47.78;96046.41;624758;227;67380;-63
2023/12/02 00:57:43;;;;;;;;;;;;;;;20.12;47.77;96056.28;624748;227;67059;-63
2023/12/02 01:00:11;;;;;;;;;;;;;;;20.13;47.78;96057.89;624775;227;65533;-63
2023/12/02 01:02:38;;;;;;;;;;;;;;;20.13;47.83;96047.22;624735;227;67340;-63
2023/12/02 01:05:06;;;;;;;;;;;;;;;20.13;47.84;96047.22;624759;227;66861;-63
2023/12/02 01:07:34;;;;;;;;;;;;;;;20.14;47.83;96061.34;624826;227;64559;-63
2023/12/02 01:10:01;;;;;;;;;;;;;;;20.12;47.77;96066.95;624757;227;67207;-63
2023/12/02 01:12:29;;;;;;;;;;;;;;;20.13;47.77;96057.08;624757;227;67078;-63
2023/12/02 01:14:56;;;;;;;;;;;;;;;20.12;47.78;96069.63;624741;227;64587;-63
2023/12/02 01:17:24;;;;;;;;;;;;;;;20.13;47.77;96076.56;624715;227;67023;-63
2023/12/02 01:19:51;;;;;;;;;;;;;;;20.13;47.71;96081.08;624817;227;65642;-63
2023/12/02 01:22:19;;;;;;;;;;;;;;;20.13;47.74;96084.56;624753;227;64398;-63
2023/12/02 01:24:46;;;;;;;;;;;;;;;20.13;47.75;96076.56;624747;227;67160;-67
2023/12/02 01:27:14;;;;;;;;;;;;;;;20.13;47.74;96083.75;624749;227;67078;-67
2023/12/02 01:29:41;;;;;;;;;;;;;;;20.13;47.71;96083.75;624766;227;64597;-67
2023/12/02 01:32:09;;;;;;;;;;;;;;;20.13;47.71;96076.56;624737;227;67207;-63
2023/12/02 01:34:36;;;;;;;;;;;;;;;20.13;47.70;96059.73;624757;226;64664;-63
2023/12/02 01:37:04;;;;;;;;;;;;;;;20.13;47.70;96055.22;624770;227;63305;-63
2023/12/02 01:39:31;;;;;;;;;;;;;;;20.13;47.69;96054.41;624731;227;67272;-63
2023/12/02 01:41:59;;;;;;;;;;;;;;;20.12;47.67;96056.28;624739;227;67332;-67
2023/12/02 01:44:27;;;;;;;;;;;;;;;20.13;47.68;96051.73;624782;227;64545;-67
2023/12/02 01:46:54;;;;;;;;;;;;;;;20.12;47.68;96056.28;624742;227;67151;-67
2023/12/02 01:49:22;;;;;;;;;;;;;;;20.12;47.67;96064.29;624740;227;67038;-67
2023/12/02 01:51:49;;;;;;;;;;;;;;;20.12;47.69;96056.28;624748;227;64735;-67
2023/12/02 01:54:17;;;;;;;;;;;;;;;20.12;47.65;96042.95;624724;227;67058;-68
2023/12/02 01:56:45;;;;;;;;;;;;;;;20.12;47.63;96028.83;624806;227;67121;-66
2023/12/02 01:59:14;;;;;;;;;;;;;;;20.12;47.64;96026.16;624082;227;43454;-66
2023/12/02 02:01:42;;;;;;;;;;;;;;;20.12;47.59;96045.62;624740;227;66843;-66
2023/12/02 02:04:09;;;;;;;;;;;;;;;20.12;47.57;96056.28;624749;227;64935;-66
2023/12/02 02:06:37;;;;;;;;;;;;;;;20.12;47.60;96045.62;624726;227;62458;-66
2023/12/02 02:09:04;;;;;;;;;;;;;;;20.12;47.62;96037.61;624808;227;65221;-66
2023/12/02 02:11:32;;;;;;;;;;;;;;;20.11;47.61;96030.70;624770;227;67207;-62
2023/12/02 02:14:00;;;;;;;;;;;;;;;20.11;47.60;96028.04;624744;227;64862;-62
2023/12/02 02:16:27;;;;;;;;;;;;;;;20.12;47.58;96031.49;624741;227;67196;-62
2023/12/02 02:18:54;;;;;;;;;;;;;;;20.11;47.59;96032.59;624751;227;66952;-62
2023/12/02 02:21:22;;;;;;;;;;;;;;;20.11;47.61;96022.70;624775;227;64621;-62
2023/12/02 02:23:50;;;;;;;;;;;;;;;20.12;47.60;96018.16;624819;227;66945;-62
2023/12/02 02:26:17;;;;;;;;;;;;;;;20.12;47.60;96008.27;624745;227;66832;-62
2023/12/02 02:28:45;;;;;;;;;;;;;;;20.12;47.60;96007.48;624780;227;64618;-62
2023/12/02 02:31:12;;;;;;;;;;;;;;;20.11;47.60;96004.03;624730;227;66925;-66
2023/12/02 02:33:40;;;;;;;;;;;;;;;20.12;47.58;96007.48;624712;226;66889;-66
2023/12/02 02:36:08;;;;;;;;;;;;;;;20.11;47.58;95993.36;624834;227;63513;-66
2023/12/02 02:38:36;;;;;;;;;;;;;;;20.11;47.59;95985.36;624730;227;66945;-66
2023/12/02 02:41:04;;;;;;;;;;;;;;;20.12;47.57;95992.27;624757;227;66714;-66
2023/12/02 02:43:32;;;;;;;;;;;;;;;20.12;47.54;95991.48;624769;227;64780;-66
2023/12/02 02:45:59;;;;;;;;;;;;;;;20.11;47.52;95996.03;624718;227;66854;-66
2023/12/02 02:48:26;;;;;;;;;;;;;;;20.12;47.57;95994.15;624809;227;66867;-67
2023/12/02 02:50:54;;;;;;;;;;;;;;;20.11;47.59;95990.70;624754;227;64581;-66
2023/12/02 02:53:21;;;;;;;;;;;;;;;20.11;47.60;95980.02;624696;227;67179;-66
2023/12/02 02:55:49;;;;;;;;;;;;;;;20.11;47.60;95974.69;624722;227;67165;-66
2023/12/02 02:58:16;;;;;;;;;;;;;;;20.12;47.60;95980.81;624739;227;64899;-66
2023/12/02 03:00:44;;;;;;;;;;;;;;;20.11;47.57;95977.36;624787;227;68004;-66
2023/12/02 03:03:12;;;;;;;;;;;;;;;20.11;47.59;95969.36;624751;227;67039;-67
2023/12/02 03:05:40;;;;;;;;;;;;;;;20.12;47.60;95980.81;624724;227;62679;-66
2023/12/02 03:08:07;;;;;;;;;;;;;;;20.11;47.58;95972.02;624728;227;65035;-66
2023/12/02 03:10:35;;;;;;;;;;;;;;;20.12;47.58;95976.27;624762;227;66670;-66
2023/12/02 03:13:02;;;;;;;;;;;;;;;20.11;47.57;95980.02;624806;227;64568;-66
2023/12/02 03:15:29;;;;;;;;;;;;;;;20.11;47.53;95977.36;624744;227;66841;-67
2023/12/02 03:17:57;;;;;;;;;;;;;;;20.12;47.53;95972.81;624731;227;66920;-66
2023/12/02 03:20:25;;;;;;;;;;;;;;;20.11;47.57;95982.70;624690;227;64569;-66
2023/12/02 03:22:52;;;;;;;;;;;;;;;20.11;47.54;95982.70;624748;227;67190;-66
2023/12/02 03:25:20;;;;;;;;;;;;;;;20.11;47.59;95977.36;624773;227;64748;-66
2023/12/02 03:27:47;;;;;;;;;;;;;;;20.11;47.60;95974.69;624761;227;62500;-66
2023/12/02 03:30:15;;;;;;;;;;;;;;;20.11;47.57;95961.36;624760;227;65004;-66
2023/12/02 03:32:42;;;;;;;;;;;;;;;20.11;47.58;95953.35;624681;226;67075;-62
2023/12/02 03:35:10;;;;;;;;;;;;;;;20.11;47.57;95950.69;624519;227;64750;-62
2023/12/02 03:37:38;;;;;;;;;;;;;;;20.11;47.58;95956.02;624578;227;67023;-62
2023/12/02 03:40:06;;;;;;;;;;;;;;;20.11;47.55;95958.69;624563;227;67107;-62
2023/12/02 03:42:34;;;;;;;;;;;;;;;20.11;47.58;95952.56;624504;227;65024;-63
2023/12/02 03:45:02;;;;;;;;;;;;;;;20.11;47.60;95957.90;624504;227;67286;-67
2023/12/02 03:47:29;;;;;;;;;;;;;;;20.10;47.60;95951.75;624493;227;65023;-67
2023/12/02 03:49:57;;;;;;;;;;;;;;;20.11;47.58;95941.90;624522;227;62334;-67
2023/12/02 03:52:25;;;;;;;;;;;;;;;20.11;47.58;95950.69;624560;227;67358;-67
2023/12/02 03:54:52;;;;;;;;;;;;;;;20.11;47.54;95958.69;624525;227;67008;-67
2023/12/02 03:57:20;;;;;;;;;;;;;;;20.11;47.53;95971.23;624527;227;64847;-67
2023/12/02 03:59:48;;;;;;;;;;;;;;;20.10;47.53;95954.41;624507;227;67351;-67
2023/12/02 04:02:15;;;;;;;;;;;;;;;20.10;47.58;95938.41;624558;227;66772;-67
2023/12/02 04:04:43;;;;;;;;;;;;;;;20.10;47.56;95934.96;624573;227;64426;-67
2023/12/02 04:07:10;;;;;;;;;;;;;;;20.10;47.54;95935.75;624518;227;67204;-67
2023/12/02 04:09:38;;;;;;;;;;;;;;;20.10;47.51;95933.08;624517;227;67241;-67
2023/12/02 04:12:06;;;;;;;;;;;;;;;20.11;47.51;95936.56;624535;227;63506;-67
2023/12/02 04:14:33;;;;;;;;;;;;;;;20.10;47.49;95943.75;624500;227;67246;-67
2023/12/02 04:17:01;;;;;;;;;;;;;;;20.10;47.47;95943.75;624568;227;66928;-67
2023/12/02 04:19:28;;;;;;;;;;;;;;;20.10;47.44;95946.41;624539;227;64733;-67
2023/12/02 04:21:56;;;;;;;;;;;;;;;20.11;47.42;95949.91;624548;227;67054;-67
2023/12/02 04:24:24;;;;;;;;;;;;;;;20.11;47.40;95933.89;624519;227;66797;-67
2023/12/02 04:26:51;;;;;;;;;;;;;;;20.10;47.39;95941.08;624539;227;64539;-66
2023/12/02 04:29:19;;;;;;;;;;;;;;;20.12;47.42;95954.14;624561;227;66878;-66
2023/12/02 04:31:46;;;;;;;;;;;;;;;20.10;47.41;95954.41;624517;227;67004;-68
2023/12/02 04:34:14;;;;;;;;;;;;;;;20.11;47.41;95950.69;624583;226;62526;-67
2023/12/02 04:36:43;;;;;;;;;;;;;;;20.11;47.44;95941.90;624731;227;65311;-67
2023/12/02 04:39:11;;;;;;;;;;;;;;;20.11;47.46;95948.02;624698;227;66897;-67
2023/12/02 04:41:38;;;;;;;;;;;;;;;20.10;47.46;95949.08;624757;227;64766;-67
2023/12/02 04:44:08;;;;;;;;;;;;;;;20.10;47.49;95946.41;624582;227;67471;-67
2023/12/02 04:46:35;;;;;;;;;;;;;;;20.11;47.51;95949.91;624710;227;67047;-67
2023/12/02 04:49:03;;;;;;;;;;;;;;;20.12;47.52;95951.47;624727;227;64926;-62
2023/12/02 04:51:30;;;;;;;;;;;;;;;20.10;47.50;95950.96;624762;227;64999;-62
2023/12/02 04:53:58;;;;;;;;;;;;;;;20.10;47.47;95965.09;624677;227;64950;-63
2023/12/02 04:56:25;;;;;;;;;;;;;;;20.10;47.49;95965.09;624776;227;62587;-63
2023/12/02 04:58:53;;;;;;;;;;;;;;;20.10;47.46;95950.96;624702;227;65675;-62
2023/12/02 05:01:20;;;;;;;;;;;;;;;20.11;47.46;95955.23;624713;227;66842;-63
2023/12/02 05:03:48;;;;;;;;;;;;;;;20.10;47.46;95945.63;624720;227;64582;-62
2023/12/02 05:06:17;;;;;;;;;;;;;;;20.10;47.45;95943.75;624735;227;67195;-63
2023/12/02 05:08:44;;;;;;;;;;;;;;;20.11;47.45;95939.23;624775;227;64806;-63
2023/12/02 05:11:18;;;;;;;;;;;;;;;20.10;47.42;95940.30;624722;227;62459;-62
2023/12/02 05:13:46;;;;;;;;;;;;;;;20.11;47.44;95952.56;624704;227;67114;-63
2023/12/02 05:16:14;;;;;;;;;;;;;;;20.09;47.40;95939.51;624755;227;64649;-67
2023/12/02 05:18:42;;;;;;;;;;;;;;;20.10;47.46;95948.30;624709;227;62532;-67
2023/12/02 05:21:10;;;;;;;;;;;;;;;20.10;47.43;95946.41;624746;227;67175;-67
2023/12/02 05:23:38;;;;;;;;;;;;;;;20.10;47.39;95930.41;624731;227;67375;-67
2023/12/02 05:26:06;;;;;;;;;;;;;;;20.09;47.43;95928.84;624739;227;64765;-67
2023/12/02 05:28:34;;;;;;;;;;;;;;;20.09;47.42;95918.17;624738;227;67135;-67
2023/12/02 05:31:01;;;;;;;;;;;;;;;20.10;47.43;95933.08;624763;227;67024;-67
2023/12/02 05:33:29;;;;;;;;;;;;;;;20.09;47.39;95936.05;624726;226;64536;-67
2023/12/02 05:35:57;;;;;;;;;;;;;;;20.09;47.38;95938.72;624738;227;67082;-68
2023/12/02 05:38:24;;;;;;;;;;;;;;;20.09;47.39;95942.17;624758;227;64965;-68
2023/12/02 05:40:52;;;;;;;;;;;;;;;20.09;47.37;95960.84;624762;227;62478;-67
2023/12/02 05:43:19;;;;;;;;;;;;;;;20.10;47.36;95964.30;624752;227;64326;-67
2023/12/02 05:45:47;;;;;;;;;;;;;;;20.09;47.39;95963.52;624809;227;67046;-67
2023/12/02 05:48:14;;;;;;;;;;;;;;;20.09;47.44;95958.17;624741;227;64791;-63
2023/12/02 05:50:42;;;;;;;;;;;;;;;20.09;47.44;95944.84;624733;227;67251;-63
2023/12/02 05:53:10;;;;;;;;;;;;;;;20.09;47.44;95942.17;624710;227;67220;-63
2023/12/02 05:55:37;;;;;;;;;;;;;;;20.09;47.40;95930.72;624746;227;64588;-63
2023/12/02 05:58:04;;;;;;;;;;;;;;;20.09;47.42;95918.17;624772;227;67066;-63
2023/12/02 06:00:35;;;;;;;;;;;;;;;20.09;47.39;95936.84;624768;227;64842;-63
2023/12/02 06:03:03;;;;;;;;;;;;;;;20.10;47.38;95935.75;624718;227;62735;-62
2023/12/02 06:05:30;;;;;;;;;;;;;;;20.09;47.40;95934.17;624780;227;67091;-62
2023/12/02 06:07:58;;;;;;;;;;;;;;;20.09;47.42;95939.51;624724;227;66813;-62
2023/12/02 06:10:25;;;;;;;;;;;;;;;20.09;47.42;95949.39;624756;227;64708;-62
2023/12/02 06:12:53;;;;;;;;;;;;;;;20.10;47.42;95950.96;624765;227;67411;-62
2023/12/02 06:15:20;;;;;;;;;;;;;;;20.08;47.43;95951.27;624737;227;67007;-62
2023/12/02 06:17:48;;;;;;;;;;;;;;;20.10;47.51;95958.97;624731;227;62171;-62
2023/12/02 06:20:15;;;;;;;;;;;;;;;20.09;47.51;95957.39;624744;227;64855;-62
2023/12/02 06:22:43;;;;;;;;;;;;;;;20.09;47.48;95968.06;624729;227;64881;-62
2023/12/02 06:25:10;;;;;;;;;;;;;;;20.09;47.47;95968.84;624797;227;62378;-62
2023/12/02 06:27:38;;;;;;;;;;;;;;;20.09;47.40;95965.39;624752;227;64755;-62
2023/12/02 06:30:06;;;;;;;;;;;;;;;20.08;47.37;95967.27;624773;227;64285;-62
2023/12/02 06:32:33;;;;;;;;;;;;;;;20.08;47.37;95967.27;624685;226;64764;-62
2023/12/02 06:35:01;;;;;;;;;;;;;;;20.08;47.39;95966.45;624760;227;66752;-62
2023/12/02 06:37:28;;;;;;;;;;;;;;;20.08;47.37;95969.13;624806;227;66727;-62
2023/12/02 06:39:56;;;;;;;;;;;;;;;20.07;47.39;95955.00;624761;227;64794;-62
2023/12/02 06:42:23;;;;;;;;;;;;;;;20.09;47.40;95962.73;624748;227;64599;-62
2023/12/02 06:44:51;;;;;;;;;;;;;;;20.08;47.39;95945.12;624730;227;66968;-62
2023/12/02 06:47:18;;;;;;;;;;;;;;;20.08;47.39;95942.45;624743;227;64804;-62
2023/12/02 06:49:46;;;;;;;;;;;;;;;20.09;47.39;95957.39;624829;227;66770;-62
2023/12/02 06:52:14;;;;;;;;;;;;;;;20.08;47.37;95948.60;624731;227;64753;-62
2023/12/02 06:54:41;;;;;;;;;;;;;;;20.08;47.42;95945.94;624782;227;62497;-62
2023/12/02 06:57:09;;;;;;;;;;;;;;;20.08;47.42;95943.27;624737;227;64713;-62
2023/12/02 06:59:36;;;;;;;;;;;;;;;20.07;47.40;95931.00;624743;227;64978;-62
2023/12/02 07:02:04;;;;;;;;;;;;;;;20.07;47.42;95939.00;624698;227;62521;-62
2023/12/02 07:04:32;;;;;;;;;;;;;;;20.09;47.43;95947.51;624780;227;65253;-62
2023/12/02 07:06:59;;;;;;;;;;;;;;;20.08;47.45;95951.27;624722;227;67040;-62
2023/12/02 07:09:27;;;;;;;;;;;;;;;20.08;47.45;95947.78;624719;227;64556;-62
2023/12/02 07:11:55;;;;;;;;;;;;;;;20.08;47.46;95953.94;624714;227;67964;-63
2023/12/02 07:14:22;;;;;;;;;;;;;;;20.08;47.41;95953.13;624727;227;66881;-64
2023/12/02 07:16:50;;;;;;;;;;;;;;;20.06;47.33;95963.31;624785;227;62592;-64
2023/12/02 07:19:17;;;;;;;;;;;;;;;20.07;47.34;95968.34;624751;227;64873;-64
2023/12/02 07:21:45;;;;;;;;;;;;;;;20.08;47.39;95974.45;624726;227;64870;-64
2023/12/02 07:24:13;;;;;;;;;;;;;;;20.08;47.42;95961.94;624681;227;64707;-64
2023/12/02 07:26:41;;;;;;;;;;;;;;;20.09;47.42;95960.84;624711;227;64888;-64
2023/12/02 07:29:09;;;;;;;;;;;;;;;20.08;47.44;95956.61;624792;227;66902;-64
2023/12/02 07:31:37;;;;;;;;;;;;;;;20.10;47.46;95962.42;624680;224;64768;-64
2023/12/02 07:34:04;;;;;;;;;;;;;;;20.09;47.45;95966.18;624477;225;67162;-63
2023/12/02 07:36:32;;;;;;;;;;;;;;;20.11;47.50;95963.23;624473;227;65768;-64
2023/12/02 07:38:59;;;;;;;;;;;;;;;20.11;47.47;95960.56;624518;227;62601;-64
2023/12/02 07:41:27;;;;;;;;;;;;;;;20.10;47.47;95953.63;624559;227;67155;-63
2023/12/02 07:43:55;;;;;;;;;;;;;;;20.11;47.47;95957.90;624528;227;66669;-63
2023/12/02 07:46:22;;;;;;;;;;;;;;;20.11;47.42;95960.56;624504;227;64596;-63
2023/12/02 07:48:50;;;;;;;;;;;;;;;20.11;47.46;95969.36;624514;227;67078;-63
2023/12/02 07:51:18;;;;;;;;;;;;;;;20.11;47.52;95966.69;624453;227;67302;-63
2023/12/02 07:53:46;;;;;;;;;;;;;;;20.11;47.54;95974.69;624534;227;62740;-63
2023/12/02 07:56:13;;;;;;;;;;;;;;;20.11;47.59;95974.69;624470;227;64601;-63
2023/12/02 07:58:41;;;;;;;;;;;;;;;20.12;47.55;95984.27;624519;227;64822;-62
2023/12/02 08:01:08;;;;;;;;;;;;;;;20.12;47.57;95980.81;624494;227;62357;-62
2023/12/02 08:03:36;;;;;;;;;;;;;;;20.11;47.57;95974.69;624483;227;67180;-63
2023/12/02 08:06:03;;;;;;;;;;;;;;;20.12;47.55;95978.94;624494;227;66972;-63
2023/12/02 08:08:31;;;;;;;;;;;;;;;20.13;47.59;95985.05;624593;227;64623;-62
2023/12/02 08:10:58;;;;;;;;;;;;;;;20.13;47.65;95977.05;624539;227;66725;-63
2023/12/02 08:13:26;;;;;;;;;;;;;;;20.12;47.60;95984.27;624505;227;66802;-62
2023/12/02 08:15:54;;;;;;;;;;;;;;;20.13;47.58;95988.54;624496;227;64694;-63
2023/12/02 08:18:21;;;;;;;;;;;;;;;20.13;47.57;95999.20;624516;227;67403;-63
2023/12/02 08:20:49;;;;;;;;;;;;;;;20.13;47.56;95993.88;624544;227;66861;-63
2023/12/02 08:23:17;;;;;;;;;;;;;;;20.15;47.49;95998.91;624520;227;65004;-63
2023/12/02 08:25:44;;;;;;;;;;;;;;;20.14;47.40;96019.45;624493;227;67266;-63
2023/12/02 08:28:12;;;;;;;;;;;;;;;20.15;47.39;96001.57;624513;227;67023;-62
2023/12/02 08:30:39;;;;;;;;;;;;;;;20.14;47.31;96019.45;624501;227;64735;-63
2023/12/02 08:33:07;;;;;;;;;;;;;;;20.14;47.23;96018.67;624485;226;67209;-62
2023/12/02 08:35:35;;;;;;;;;;;;;;;20.15;47.22;96021.03;624517;227;66976;-62
2023/12/02 08:38:02;;;;;;;;;;;;;;;20.14;47.21;96019.45;624497;227;64789;-63
2023/12/02 08:40:30;;;;;;;;;;;;;;;20.14;47.18;96014.13;624515;227;67062;-63
2023/12/02 08:42:57;;;;;;;;;;;;;;;20.14;47.14;96013.33;624497;227;66899;-63
2023/12/02 08:45:25;;;;;;;;;;;;;;;20.14;47.13;96006.12;624516;227;62535;-63
2023/12/02 08:47:52;;;;;;;;;;;;;;;20.16;47.12;96016.48;624525;227;67190;-62
2023/12/02 08:50:20;;;;;;;;;;;;;;;20.15;47.11;96010.36;624495;227;64769;-63
2023/12/02 08:52:47;;;;;;;;;;;;;;;20.15;47.07;95989.02;624509;227;63321;-63
2023/12/02 08:55:15;;;;;;;;;;;;;;;20.16;47.05;95993.29;624521;227;64908;-63
2023/12/02 08:57:42;;;;;;;;;;;;;;;20.16;47.03;95997.81;624583;227;64711;-63
2023/12/02 09:00:10;;;;;;;;;;;;;;;20.16;47.05;95993.29;624540;227;62659;-64
2023/12/02 09:02:38;;;;;;;;;;;;;;;20.15;47.03;96002.36;624532;227;67737;-63
2023/12/02 09:05:06;;;;;;;;;;;;;;;20.17;47.04;95991.41;624487;227;64990;-63
2023/12/02 09:07:33;;;;;;;;;;;;;;;20.17;47.02;95980.73;620746;225;64760;-63
2023/12/02 09:10:01;;;;;;;;;;;;;;;20.17;47.00;95983.41;611882;230;67244;-63
2023/12/02 09:12:28;;;;;;;;;;;;;;;20.17;47.02;95978.08;620229;225;66964;-64
2023/12/02 09:15:09;;;;;;;;;;;;;;;20.17;46.99;95978.86;620324;225;64583;-63
2023/12/02 09:17:41;;;;;;;;;;;;;;;20.17;46.99;95967.41;622681;228;67261;-62
2023/12/02 09:20:11;;;;;;;;;;;;;;;20.17;46.98;95964.73;622667;228;65657;-62
2023/12/02 09:22:42;;;;;;;;;;;;;;;20.17;46.98;95959.40;622122;227;64758;-63
2023/12/02 09:25:11;;;;;;;;;;;;;;;20.17;47.02;95956.73;622656;228;64500;-64
2023/12/02 09:27:40;;;;;;;;;;;;;;;20.17;47.00;95951.39;622515;227;64798;-64
2023/12/02 09:30:09;;;;;;;;;;;;;;;20.17;47.00;95946.06;621726;228;64466;-63
2023/12/02 09:32:46;;;;;;;;;;;;;;;20.17;46.99;95940.73;622565;227;65352;-63
2023/12/02 09:35:14;;;;;;;;;;;;;;;20.17;46.97;95922.84;621533;228;66867;-62
2023/12/02 09:37:55;;;;;;;;;;;;;;;20.17;46.96;95930.05;621561;228;64770;-62
2023/12/02 09:40:24;;;;;;;;;;;;;;;20.17;47.02;95935.39;621624;228;65044;-63
2023/12/02 09:42:56;;;;;;;;;;;;;;;20.17;47.03;95919.39;621572;228;64827;-62
2023/12/02 09:45:26;;;;;;;;;;;;;;;20.17;47.03;95912.17;621558;228;64689;-62
2023/12/02 09:47:54;;;;;;;;;;;;;;;20.17;47.07;95906.84;620609;228;67181;-63
2023/12/02 09:50:23;;;;;;;;;;;;;;;20.17;47.28;95892.71;621494;228;67125;-63
2023/12/02 09:53:04;;;;;;;;;;;;;;;20.17;47.57;95898.05;621377;228;64525;-62
2023/12/02 09:55:34;;;;;;;;;;;;;;;20.17;48.00;95880.16;621352;228;64980;-63
2023/12/02 09:58:06;;;;;;;;;;;;;;;20.16;48.26;95881.26;621566;228;66950;-62
2023/12/02 10:00:35;;;;;;;;;;;;;;;20.18;48.41;95883.62;621174;228;64879;-62
2023/12/02 10:03:07;;;;;;;;;;;;;;;20.16;48.46;95865.25;621394;228;67402;-62
2023/12/02 10:05:39;;;;;;;;;;;;;;;20.18;48.47;95868.39;606671;228;64924;-67
2023/12/02 10:08:12;;;;;;;;;;;;;;;20.17;48.58;95861.48;621260;228;62533;-67
2023/12/02 10:10:53;;;;;;;;;;;;;;;20.17;48.63;95869.49;621629;228;64876;-67
2023/12/02 10:13:23;;;;;;;;;;;;;;;20.19;48.72;95871.88;621577;228;64590;-67
2023/12/02 10:15:52;;;;;;;;;;;;;;;20.18;48.77;95871.06;621576;228;64562;-67
2023/12/02 10:18:21;;;;;;;;;;;;;;;20.18;48.82;95870.28;621476;228;64986;-67
2023/12/02 10:20:50;;;;;;;;;;;;;;;20.17;48.84;95861.48;621545;228;65140;-67
2023/12/02 10:23:25;;;;;;;;;;;;;;;20.19;48.75;95861.20;621349;228;62439;-67
2023/12/02 10:25:54;;;;;;;;;;;;;;;20.20;48.62;95864.66;621579;228;67139;-67
2023/12/02 10:28:24;;;;;;;;;;;;;;;20.20;48.51;95870.00;621172;224;67446;-67
2023/12/02 10:30:52;;;;;;;;;;;;;;;20.20;48.54;95886.79;625157;227;64622;-67
2023/12/02 10:33:30;;;;;;;;;;;;;;;20.18;48.60;95892.41;625077;226;64895;-67
2023/12/02 10:35:58;;;;;;;;;;;;;;;20.18;48.66;95892.41;624523;227;64646;-67
2023/12/02 10:38:28;;;;;;;;;;;;;;;20.20;48.70;95891.34;624526;227;64670;-67
2023/12/02 10:40:57;;;;;;;;;;;;;;;20.20;48.59;95897.46;621065;225;66592;-68
2023/12/02 10:43:26;;;;;;;;;;;;;;;20.21;48.54;95887.58;621920;228;66838;-68
2023/12/02 10:45:54;;;;;;;;;;;;;;;20.20;48.40;95886.00;621939;227;62440;-67
2023/12/02 10:48:22;;;;;;;;;;;;;;;20.20;48.35;95892.13;621687;228;67180;-67
2023/12/02 10:50:50;;;;;;;;;;;;;;;20.21;48.35;95887.58;622665;228;66584;-69
2023/12/02 10:53:24;;;;;;;;;;;;;;;20.21;48.24;95876.91;622730;228;64700;-69
2023/12/02 10:55:53;;;;;;;;;;;;;;;20.21;48.19;95883.03;622461;227;64565;-67
2023/12/02 10:58:19;;;;;;;;;;;;;;;20.20;48.12;95864.66;622626;227;66600;-67
2023/12/02 11:00:47;;;;;;;;;;;;;;;20.21;48.13;95874.23;622605;228;64565;-67
2023/12/02 11:03:34;;;;;;;;;;;;;;;20.21;48.08;95877.69;622643;228;65009;-67
2023/12/02 11:06:06;;;;;;;;;;;;;;;20.21;48.03;95885.69;622577;227;67123;-67
2023/12/02 11:08:37;;;;;;;;;;;;;;;20.20;47.95;95876.12;622686;228;64870;-67
2023/12/02 11:11:06;;;;;;;;;;;;;;;20.22;47.94;95865.17;622270;227;64607;-67
2023/12/02 11:13:35;;;;;;;;;;;;;;;20.21;47.96;95859.02;622579;227;67124;-67
2023/12/02 11:16:21;;;;;;;;;;;;;;;20.21;47.96;95866.23;622654;228;64767;-67
2023/12/02 11:18:59;;;;;;;;;;;;;;;20.22;47.98;95857.16;622616;228;64549;-67
2023/12/02 11:21:45;;;;;;;;;;;;;;;20.21;48.02;95855.56;622655;228;67096;-67
2023/12/02 11:24:20;;;;;;;;;;;;;;;20.22;48.13;95859.83;622651;228;64819;-67
2023/12/02 11:26:49;;;;;;;;;;;;;;;20.21;48.20;95847.56;618726;225;67234;-67
2023/12/02 11:29:22;;;;;;;;;;;;;;;20.21;48.27;95847.56;616213;228;66265;-67
2023/12/02 11:31:54;;;;;;;;;;;;;;;20.21;48.29;95842.23;620958;228;62454;-69
2023/12/02 11:34:29;;;;;;;;;;;;;;;20.22;48.33;95857.16;623120;227;65771;-69
2023/12/02 11:37:01;;;;;;;;;;;;;;;20.21;48.33;95867.02;624827;227;65183;-68
2023/12/02 11:39:37;;;;;;;;;;;;;;;20.22;48.36;95879.30;624843;227;64684;-67
2023/12/02 11:42:12;;;;;;;;;;;;;;;20.22;48.34;95868.63;624879;227;64854;-68
2023/12/02 11:44:41;;;;;;;;;;;;;;;20.22;48.30;95868.63;624784;227;67020;-68
2023/12/02 11:47:25;;;;;;;;;;;;;;;20.22;48.29;95884.63;624732;227;64429;-68
2023/12/02 11:49:54;;;;;;;;;;;;;;;20.23;48.23;95890.75;624842;227;65008;-67
2023/12/02 11:52:26;;;;;;;;;;;;;;;20.22;48.21;95895.30;624445;227;64949;-68
2023/12/02 11:55:05;;;;;;;;;;;;;;;20.22;48.16;95889.96;624839;227;64777;-63
2023/12/02 11:57:40;;;;;;;;;;;;;;;20.21;48.11;95888.36;624789;227;64363;-63
2023/12/02 12:00:09;;;;;;;;;;;;;;;20.22;48.05;95887.30;624513;227;64799;-63
2023/12/02 12:02:54;;;;;;;;;;;;;;;20.22;48.05;95884.63;624821;227;62699;-63
2023/12/02 12:05:35;;;;;;;;;;;;;;;20.23;48.12;95874.74;624786;227;67286;-63
2023/12/02 12:08:13;;;;;;;;;;;;;;;20.23;48.25;95880.86;624838;227;65096;-63
2023/12/02 12:10:41;;;;;;;;;;;;;;;20.23;48.35;95864.86;624850;227;64944;-62
2023/12/02 12:13:10;;;;;;;;;;;;;;;20.23;48.40;95850.73;624864;227;67262;-64
2023/12/02 12:15:38;;;;;;;;;;;;;;;20.22;48.46;95847.28;624884;227;67226;-64
2023/12/02 12:18:05;;;;;;;;;;;;;;;20.23;48.55;95845.40;624863;227;64588;-63
2023/12/02 12:20:33;;;;;;;;;;;;;;;20.23;48.61;95846.19;624866;227;64884;-63
2023/12/02 12:23:01;;;;;;;;;;;;;;;20.23;48.67;95854.19;624858;227;66804;-63
2023/12/02 12:25:29;;;;;;;;;;;;;;;20.25;48.71;95851.23;624832;227;62474;-63
2023/12/02 12:28:04;;;;;;;;;;;;;;;20.24;48.76;95846.97;624865;227;67207;-64
2023/12/02 12:30:45;;;;;;;;;;;;;;;20.24;48.72;95847.75;624855;227;67087;-63
2023/12/02 12:33:13;;;;;;;;;;;;;;;20.23;48.78;95834.73;624564;227;64617;-62
2023/12/02 12:35:41;;;;;;;;;;;;;;;20.24;48.87;95815.74;624947;227;64930;-63
2023/12/02 12:38:09;;;;;;;;;;;;;;;20.24;48.88;95815.74;624944;227;64842;-63
2023/12/02 12:40:38;;;;;;;;;;;;;;;20.24;48.90;95813.08;624914;227;64579;-63
2023/12/02 12:43:08;;;;;;;;;;;;;;;20.24;48.89;95804.28;624970;227;65124;-62
2023/12/02 12:45:35;;;;;;;;;;;;;;;20.24;48.90;95805.07;624949;227;66762;-63
2023/12/02 12:48:04;;;;;;;;;;;;;;;20.25;48.88;95813.89;624944;227;64791;-62
2023/12/02 12:50:32;;;;;;;;;;;;;;;20.25;48.93;95819.23;624917;227;64892;-62
2023/12/02 12:53:01;;;;;;;;;;;;;;;20.25;48.89;95805.89;624911;227;65104;-63
2023/12/02 12:55:30;;;;;;;;;;;;;;;20.25;48.89;95800.55;624454;227;64668;-62